createdAt,value
2018-06-18T00:02:10.403Z,76.90
2018-06-18T00:04:39.416Z,77.61
2018-06-18T00:07:08.401Z,77.97
2018-06-18T00:09:37.471Z,78.04
2018-06-18T00:12:07.232Z,78.34
2018-06-18T00:14:36.288Z,78.94
2018-06-18T00:17:05.384Z,78.43
2018-06-18T00:19:34.323Z,79.14
2018-06-18T00:22:03.273Z,79.13
2018-06-18T00:24:32.325Z,77.99
2018-06-18T00:27:01.291Z,78.78
2018-06-18T00:29:30.205Z,78.01
2018-06-18T00:31:59.352Z,78.02
2018-06-18T00:34:28.344Z,77.81
2018-06-18T00:36:57.275Z,77.57
2018-06-18T00:39:26.316Z,77.72
2018-06-18T00:41:55.243Z,78.27
2018-06-18T00:44:24.228Z,78.33
2018-06-18T00:46:53.260Z,78.56
2018-06-18T00:49:22.175Z,78.80
2018-06-18T00:51:51.147Z,78.96
2018-06-18T00:54:20.207Z,77.95
2018-06-18T00:56:49.128Z,79.05
2018-06-18T00:59:18.112Z,78.61
2018-06-18T01:01:47.320Z,79.46
2018-06-18T01:04:16.291Z,79.39
2018-06-18T01:06:45.948Z,78.37
2018-06-18T01:09:16.736Z,79.14
2018-06-18T01:11:45.710Z,79.45
2018-06-18T01:14:14.656Z,79.34
2018-06-18T01:16:43.803Z,79.36
2018-06-18T01:19:12.720Z,79.40
2018-06-18T01:21:41.736Z,78.80
2018-06-18T01:24:20.246Z,79.83
2018-06-18T01:26:49.164Z,79.91
2018-06-18T01:29:18.819Z,79.71
2018-06-18T01:31:48.179Z,80.76
2018-06-18T01:34:23.838Z,80.42
2018-06-18T01:36:52.959Z,80.57
2018-06-18T01:39:22.053Z,80.33
2018-06-18T01:41:51.351Z,80.62
2018-06-18T01:44:21.247Z,80.75
2018-06-18T01:46:50.198Z,81.04
2018-06-18T01:49:19.164Z,80.32
2018-06-18T01:51:48.287Z,80.73
2018-06-18T01:54:17.244Z,80.35
2018-06-18T01:56:46.941Z,81.33
2018-06-18T01:59:16.056Z,79.93
2018-06-18T02:01:45.117Z,80.53
2018-06-18T02:04:14.143Z,79.90
2018-06-18T02:06:43.272Z,79.26
2018-06-18T02:09:14.053Z,79.77
2018-06-18T02:11:43.048Z,80.36
2018-06-18T02:14:12.660Z,81.21
2018-06-18T02:16:42.723Z,80.12
2018-06-18T02:19:12.304Z,79.84
2018-06-18T02:21:41.301Z,79.98
2018-06-18T02:24:10.196Z,80.20
2018-06-18T02:26:40.332Z,80.51
2018-06-18T02:29:14.867Z,80.31
2018-06-18T02:31:49.140Z,80.10
2018-06-18T02:34:23.294Z,80.92
2018-06-18T02:36:57.420Z,80.17
2018-06-18T02:39:27.215Z,80.83
2018-06-18T02:41:56.227Z,81.12
2018-06-18T02:44:25.293Z,80.95
2018-06-18T02:46:54.233Z,81.56
2018-06-18T02:49:24.064Z,81.27
2018-06-18T02:51:53.055Z,81.05
2018-06-18T02:54:22.656Z,81.32
2018-06-18T02:56:58.693Z,80.14
2018-06-18T02:59:29.176Z,81.09
2018-06-18T03:01:58.184Z,81.13
2018-06-18T03:04:27.333Z,80.50
2018-06-18T03:06:57.680Z,80.46
2018-06-18T03:09:26.577Z,80.80
2018-06-18T03:11:56.457Z,80.16
2018-06-18T03:14:25.379Z,80.38
2018-06-18T03:16:54.308Z,79.83
2018-06-18T03:19:28.644Z,80.46
2018-06-18T03:22:02.615Z,79.92
2018-06-18T03:24:36.721Z,80.11
2018-06-18T03:27:10.916Z,78.67
2018-06-18T03:29:40.044Z,77.88
2018-06-18T03:32:13.252Z,79.26
2018-06-18T03:34:42.215Z,77.52
2018-06-18T03:37:13.068Z,78.56
2018-06-18T03:39:41.990Z,78.02
2018-06-18T03:42:11.060Z,76.47
2018-06-18T03:45:02.688Z,78.74
2018-06-18T03:47:31.825Z,78.92
2018-06-18T03:50:00.911Z,77.17
2018-06-18T03:52:29.947Z,77.02
2018-06-18T03:55:01.400Z,76.23
2018-06-18T03:57:30.433Z,74.66
2018-06-18T03:59:59.864Z,76.83
2018-06-18T04:02:44.401Z,76.63
2018-06-18T04:05:18.526Z,75.18
2018-06-18T04:07:52.873Z,74.38
2018-06-18T04:10:27.005Z,72.03
2018-06-18T04:12:56.132Z,71.18
2018-06-18T04:15:25.147Z,71.43
2018-06-18T04:17:54.144Z,71.64
2018-06-18T04:20:23.293Z,72.97
2018-06-18T04:22:52.436Z,73.75
2018-06-18T04:25:21.437Z,73.10
2018-06-18T04:27:50.420Z,75.57
2018-06-18T04:30:19.392Z,74.07
2018-06-18T04:32:48.348Z,73.70
2018-06-18T04:35:17.714Z,72.89
2018-06-18T04:37:46.686Z,74.76
2018-06-18T04:40:15.728Z,71.79
2018-06-18T04:42:50.054Z,68.95
2018-06-18T04:45:24.304Z,67.26
2018-06-18T04:47:58.679Z,67.67
2018-06-18T04:50:32.915Z,67.31
2018-06-18T04:53:01.916Z,68.26
2018-06-18T04:55:30.869Z,65.72
2018-06-18T04:57:59.874Z,67.21
2018-06-18T05:00:40.781Z,65.73
2018-06-18T05:03:10.025Z,65.24
2018-06-18T05:05:39.033Z,67.97
2018-06-18T05:09:23.346Z,65.79
2018-06-18T05:11:52.444Z,63.41
2018-06-18T05:14:21.676Z,66.30
2018-06-18T05:16:50.948Z,64.24
2018-06-18T05:19:21.954Z,65.19
2018-06-18T05:21:51.391Z,67.07
2018-06-18T05:24:20.447Z,71.29
2018-06-18T05:26:52.507Z,68.82
2018-06-18T05:29:23.340Z,70.79
2018-06-18T05:31:52.964Z,67.45
2018-06-18T05:34:24.194Z,67.04
2018-06-18T05:36:54.829Z,68.65
2018-06-18T05:39:23.782Z,68.05
2018-06-18T05:41:53.123Z,68.12
2018-06-18T05:44:22.705Z,70.69
2018-06-18T05:46:52.173Z,69.35
2018-06-18T05:49:21.118Z,67.83
2018-06-18T05:51:50.207Z,67.84
2018-06-18T05:54:19.141Z,69.10
2018-06-18T05:56:48.136Z,67.80
2018-06-18T05:59:17.186Z,67.33
2018-06-18T06:01:46.132Z,65.06
2018-06-18T06:04:15.051Z,66.04
2018-06-18T06:06:44.114Z,67.23
2018-06-18T06:09:13.812Z,64.43
2018-06-18T06:11:42.715Z,62.38
2018-06-18T06:14:11.732Z,62.68
2018-06-18T06:16:40.670Z,62.60
2018-06-18T06:19:09.592Z,60.71
2018-06-18T06:21:39.321Z,58.67
2018-06-18T06:24:08.986Z,58.45
2018-06-18T06:26:37.996Z,60.31
2018-06-18T06:29:07.069Z,61.54
2018-06-18T06:31:36.038Z,58.56
2018-06-18T06:34:08.002Z,62.63
2018-06-18T06:36:36.975Z,55.93
2018-06-18T06:39:09.810Z,55.87
2018-06-18T06:41:39.232Z,62.22
2018-06-18T06:44:08.151Z,59.31
2018-06-18T06:46:37.143Z,55.47
2018-06-18T06:49:06.129Z,55.78
2018-06-18T06:51:35.093Z,56.72
2018-06-18T06:54:04.829Z,55.17
2018-06-18T06:56:33.776Z,58.25
2018-06-18T06:59:02.712Z,58.54
2018-06-18T07:01:31.695Z,57.43
2018-06-18T07:04:01.128Z,58.87
2018-06-18T07:06:30.827Z,56.72
2018-06-18T07:08:59.917Z,55.43
2018-06-18T07:11:29.236Z,54.39
2018-06-18T07:13:58.207Z,52.19
2018-06-18T07:16:27.764Z,52.97
2018-06-18T07:18:56.711Z,50.37
2018-06-18T07:21:25.695Z,52.03
2018-06-18T07:23:55.395Z,50.27
2018-06-18T07:26:24.465Z,47.48
2018-06-18T07:28:53.391Z,49.66
2018-06-18T07:31:22.524Z,47.76
2018-06-18T07:33:53.364Z,46.90
2018-06-18T07:36:22.313Z,46.66
2018-06-18T07:38:51.380Z,45.17
2018-06-18T07:41:20.315Z,45.58
2018-06-18T07:43:49.280Z,44.95
2018-06-18T07:46:18.274Z,46.38
2018-06-18T07:48:47.276Z,49.52
2018-06-18T07:51:16.389Z,47.99
2018-06-18T07:53:45.432Z,44.60
2018-06-18T07:56:14.371Z,45.96
2018-06-18T07:58:43.273Z,44.30
2018-06-18T08:01:12.269Z,46.31
2018-06-18T08:03:41.266Z,46.37
2018-06-18T08:06:10.279Z,46.75
2018-06-18T08:08:39.310Z,49.29
2018-06-18T08:11:10.444Z,48.63
2018-06-18T08:13:39.543Z,47.62
2018-06-18T08:16:08.936Z,48.27
2018-06-18T08:18:38.015Z,43.90
2018-06-18T08:21:07.012Z,45.43
2018-06-18T08:23:35.993Z,42.69
2018-06-18T08:26:05.027Z,44.68
2018-06-18T08:28:34.242Z,44.41
2018-06-18T08:31:03.994Z,44.61
2018-06-18T08:33:32.926Z,43.17
2018-06-18T08:36:02.104Z,42.32
2018-06-18T08:38:31.590Z,43.14
2018-06-18T08:41:00.818Z,43.60
2018-06-18T08:43:30.636Z,42.14
2018-06-18T08:45:59.606Z,44.20
2018-06-18T08:48:33.633Z,43.50
2018-06-18T08:51:07.654Z,45.00
2018-06-18T08:56:32.369Z,44.61
2018-06-18T08:59:06.572Z,47.05
2018-06-18T09:01:39.597Z,47.33
2018-06-18T09:05:11.575Z,49.75
2018-06-18T09:07:45.679Z,46.49
2018-06-18T09:10:14.752Z,46.80
2018-06-18T09:12:43.706Z,49.13
2018-06-18T09:15:12.632Z,48.54
2018-06-18T09:17:41.823Z,48.88
2018-06-18T09:20:10.786Z,48.88
2018-06-18T09:22:39.733Z,47.74
2018-06-18T09:25:08.901Z,49.89
2018-06-18T09:27:37.853Z,48.50
2018-06-18T09:30:10.023Z,49.64
2018-06-18T09:32:39.226Z,49.50
2018-06-18T09:35:08.192Z,48.98
2018-06-18T09:37:37.242Z,51.78
2018-06-18T09:40:06.241Z,50.89
2018-06-18T09:42:35.208Z,51.86
2018-06-18T09:45:04.994Z,47.86
2018-06-18T09:47:33.980Z,48.96
2018-06-18T09:50:08.799Z,47.98
2018-06-18T09:52:42.806Z,44.17
2018-06-18T09:55:16.888Z,44.31
2018-06-18T09:57:50.973Z,44.69
2018-06-18T10:00:36.212Z,45.20
2018-06-18T10:03:05.853Z,43.37
2018-06-18T10:05:34.817Z,44.44
2018-06-18T10:08:03.852Z,42.23
2018-06-18T10:10:32.806Z,43.63
2018-06-18T10:13:02.410Z,44.42
2018-06-18T10:15:32.157Z,43.91
2018-06-18T10:18:01.091Z,43.12
2018-06-18T10:20:30.021Z,42.45
2018-06-18T10:22:59.067Z,41.30
2018-06-18T10:25:28.020Z,41.96
2018-06-18T10:27:56.952Z,43.87
2018-06-18T10:30:26.613Z,40.84
2018-06-18T10:33:00.684Z,40.72
2018-06-18T10:35:34.678Z,43.76
2018-06-18T10:38:09.287Z,41.50
2018-06-18T10:40:43.464Z,41.59
2018-06-18T10:43:17.586Z,41.23
2018-06-18T10:45:46.676Z,45.69
2018-06-18T10:48:15.630Z,45.22
2018-06-18T10:50:44.620Z,42.32
2018-06-18T10:53:13.627Z,47.05
2018-06-18T10:55:43.540Z,45.52
2018-06-18T10:58:12.549Z,46.10
2018-06-18T11:00:42.261Z,49.31
2018-06-18T11:03:12.008Z,47.78
2018-06-18T11:06:45.930Z,50.44
2018-06-18T11:09:14.896Z,44.42
2018-06-18T11:11:43.907Z,45.79
2018-06-18T11:14:13.216Z,41.83
2018-06-18T11:16:42.377Z,39.50
2018-06-18T11:20:14.024Z,39.36
2018-06-18T11:22:48.199Z,40.79
2018-06-18T11:25:22.243Z,36.81
2018-06-18T11:27:51.183Z,35.02
2018-06-18T11:30:20.154Z,35.66
2018-06-18T11:32:49.204Z,37.27
2018-06-18T11:35:18.236Z,37.92
2018-06-18T11:37:47.211Z,37.98
2018-06-18T11:40:16.266Z,36.32
2018-06-18T11:42:45.225Z,38.38
2018-06-18T11:45:14.140Z,37.77
2018-06-18T11:47:43.107Z,37.35
2018-06-18T11:50:13.013Z,35.80
2018-06-18T11:52:42.071Z,37.65
2018-06-18T11:55:12.053Z,39.00
2018-06-18T11:57:41.509Z,39.03
2018-06-18T12:00:15.601Z,37.83
2018-06-18T12:02:49.714Z,41.04
2018-06-18T12:05:23.820Z,41.52
2018-06-18T12:07:57.823Z,41.66
2018-06-18T12:10:26.851Z,44.51
2018-06-18T12:12:56.496Z,46.71
2018-06-18T12:15:25.579Z,49.63
2018-06-18T12:17:54.577Z,53.68
2018-06-18T12:20:23.573Z,55.34
2018-06-18T12:22:53.079Z,58.33
2018-06-18T12:25:22.265Z,61.95
2018-06-18T12:27:51.153Z,62.66
2018-06-18T12:30:20.111Z,62.18
2018-06-18T12:32:49.324Z,62.88
2018-06-18T12:35:18.464Z,62.91
2018-06-18T12:37:47.875Z,64.49
2018-06-18T12:40:16.855Z,64.12
2018-06-18T12:42:45.795Z,64.50
2018-06-18T12:45:21.792Z,63.33
2018-06-18T12:47:55.749Z,64.16
2018-06-18T12:50:29.720Z,64.23
2018-06-18T12:53:03.852Z,62.36
2018-06-18T12:55:38.336Z,62.45
2018-06-18T12:58:07.349Z,60.00
2018-06-18T13:00:36.321Z,60.80
2018-06-18T13:03:11.548Z,62.13
2018-06-18T13:05:40.540Z,61.59
2018-06-18T13:08:09.463Z,63.56
2018-06-18T13:10:39.495Z,62.91
2018-06-18T13:13:08.492Z,63.09
2018-06-18T13:15:37.440Z,63.36
2018-06-18T13:18:06.891Z,62.34
2018-06-18T13:20:35.852Z,64.20
2018-06-18T13:23:04.828Z,63.58
2018-06-18T13:25:33.891Z,61.93
2018-06-18T13:28:08.406Z,62.60
2018-06-18T13:30:37.411Z,62.45
2018-06-18T13:33:06.448Z,62.24
2018-06-18T13:35:35.477Z,62.96
2018-06-18T13:38:10.100Z,61.78
2018-06-18T13:40:45.310Z,61.70
2018-06-18T13:43:19.619Z,60.18
2018-06-18T13:45:52.629Z,59.79
2018-06-18T13:49:25.748Z,61.62
2018-06-18T13:51:57.850Z,62.40
2018-06-18T13:54:29.698Z,62.42
2018-06-18T13:57:01.117Z,63.30
2018-06-18T13:59:31.967Z,61.99
2018-06-18T14:02:01.739Z,62.26
2018-06-18T14:04:33.742Z,62.38
2018-06-18T14:07:05.276Z,61.55
2018-06-18T14:09:35.977Z,62.26
2018-06-18T14:12:06.953Z,61.77
2018-06-18T14:14:36.703Z,60.77
2018-06-18T14:17:08.666Z,59.85
2018-06-18T14:19:43.425Z,61.18
2018-06-18T14:22:13.000Z,61.05
2018-06-18T14:24:42.293Z,61.54
2018-06-18T14:27:12.964Z,60.37
2018-06-18T14:29:48.109Z,64.77
2018-06-18T14:32:24.637Z,61.09
2018-06-18T14:34:59.815Z,62.83
2018-06-18T14:37:33.797Z,61.14
2018-06-18T14:40:12.268Z,61.07
2018-06-18T14:42:42.904Z,61.37
2018-06-18T14:45:12.052Z,63.31
2018-06-18T14:47:44.183Z,61.27
2018-06-18T14:50:13.116Z,62.93
2018-06-18T14:52:42.107Z,63.77
2018-06-18T14:55:12.685Z,61.73
2018-06-18T14:57:41.658Z,62.36
2018-06-18T15:00:15.996Z,64.12
2018-06-18T15:02:45.033Z,63.34
2018-06-18T15:05:14.232Z,61.94
2018-06-18T15:07:43.492Z,60.91
2018-06-18T15:10:12.557Z,62.52
2018-06-18T15:12:54.687Z,62.83
2018-06-18T15:15:28.904Z,58.55
2018-06-18T15:17:58.033Z,56.22
2018-06-18T15:20:26.986Z,59.99
2018-06-18T15:23:03.921Z,59.66
2018-06-18T15:25:38.013Z,58.88
2018-06-18T15:28:07.920Z,58.49
2018-06-18T15:30:36.818Z,57.73
2018-06-18T15:33:06.686Z,55.86
2018-06-18T15:35:35.751Z,54.46
2018-06-18T15:38:04.794Z,56.14
2018-06-18T15:40:33.795Z,55.25
2018-06-18T15:43:02.852Z,55.09
2018-06-18T15:45:31.787Z,53.59
2018-06-18T15:48:00.826Z,53.88
2018-06-18T15:50:29.938Z,56.73
2018-06-18T15:52:58.858Z,56.16
2018-06-18T15:55:27.931Z,56.02
2018-06-18T15:57:57.083Z,56.02
2018-06-18T16:00:26.100Z,56.86
2018-06-18T16:02:55.098Z,57.13
2018-06-18T16:05:24.092Z,58.02
2018-06-18T16:07:53.100Z,57.33
2018-06-18T16:10:22.103Z,58.09
2018-06-18T16:12:51.151Z,56.77
2018-06-18T16:15:20.113Z,56.56
2018-06-18T16:17:49.156Z,55.89
2018-06-18T16:20:18.141Z,55.64
2018-06-18T16:22:47.080Z,56.43
2018-06-18T16:25:16.019Z,56.22
2018-06-18T16:27:45.233Z,56.86
2018-06-18T16:30:14.172Z,57.27
2018-06-18T16:32:43.536Z,55.97
2018-06-18T16:35:12.597Z,56.17
2018-06-18T16:37:41.720Z,56.59
2018-06-18T16:40:10.760Z,57.12
2018-06-18T16:42:39.774Z,60.38
2018-06-18T16:45:08.833Z,60.43
2018-06-18T16:47:38.531Z,60.87
2018-06-18T16:50:07.846Z,62.12
2018-06-18T16:52:36.879Z,62.70
2018-06-18T16:55:06.728Z,62.81
2018-06-18T16:57:36.490Z,64.37
2018-06-18T17:00:07.210Z,64.93
2018-06-18T17:02:39.933Z,65.35
2018-06-18T17:05:09.029Z,65.10
2018-06-18T17:07:38.057Z,66.13
2018-06-18T17:10:08.188Z,64.06
2018-06-18T17:12:37.309Z,66.84
2018-06-18T17:15:06.275Z,67.20
2018-06-18T17:17:35.273Z,67.40
2018-06-18T17:20:04.527Z,67.38
2018-06-18T17:22:33.461Z,66.69
2018-06-18T17:25:03.207Z,66.41
2018-06-18T17:27:32.226Z,66.54
2018-06-18T17:30:01.831Z,67.56
2018-06-18T17:32:30.960Z,67.35
2018-06-18T17:35:00.655Z,67.06
2018-06-18T17:37:29.694Z,67.02
2018-06-18T17:39:59.032Z,66.66
2018-06-18T17:42:28.039Z,66.08
2018-06-18T17:44:57.821Z,64.98
2018-06-18T17:47:26.832Z,64.86
2018-06-18T17:49:55.813Z,64.87
2018-06-18T17:52:24.786Z,64.21
2018-06-18T17:54:53.881Z,64.24
2018-06-18T17:57:22.956Z,63.92
2018-06-18T17:59:51.914Z,64.48
2018-06-18T18:02:21.569Z,65.70
2018-06-18T18:04:51.205Z,66.54
2018-06-18T18:07:20.168Z,67.87
2018-06-18T18:09:49.203Z,68.32
2018-06-18T18:12:18.144Z,68.61
2018-06-18T18:14:47.062Z,68.59
2018-06-18T18:17:16.721Z,69.29
2018-06-18T18:19:45.722Z,68.20
2018-06-18T18:22:14.713Z,68.72
2018-06-18T18:24:43.679Z,68.60
2018-06-18T18:27:15.331Z,68.72
2018-06-18T18:29:47.062Z,68.64
2018-06-18T18:32:16.019Z,68.49
2018-06-18T18:34:45.031Z,68.71
2018-06-18T18:37:19.389Z,67.37
2018-06-18T18:39:51.037Z,67.37
2018-06-18T18:42:27.395Z,67.90
2018-06-18T18:44:56.393Z,67.98
2018-06-18T18:47:25.331Z,67.69
2018-06-18T18:49:57.621Z,67.59
2018-06-18T18:52:31.454Z,68.12
2018-06-18T18:55:37.609Z,68.30
2018-06-18T18:58:18.749Z,68.52
2018-06-18T19:00:49.710Z,67.70
2018-06-18T19:03:26.096Z,66.68
2018-06-18T19:05:56.246Z,65.33
2018-06-18T19:08:28.580Z,65.30
2018-06-18T19:10:58.715Z,65.56
2018-06-18T19:13:30.101Z,65.13
2018-06-18T19:16:01.373Z,64.99
2018-06-18T19:18:30.534Z,63.95
2018-06-18T19:21:12.029Z,63.96
2018-06-18T19:23:41.664Z,63.43
2018-06-18T19:26:10.669Z,62.30
2018-06-18T19:28:39.778Z,62.39
2018-06-18T19:31:12.999Z,62.77
2018-06-18T19:34:17.817Z,61.42
2018-06-18T19:36:52.869Z,61.82
2018-06-18T19:39:23.849Z,62.46
2018-06-18T19:41:52.859Z,62.68
2018-06-18T19:44:22.818Z,62.36
2018-06-18T19:47:34.050Z,60.99
2018-06-18T19:50:02.980Z,59.58
2018-06-18T19:52:31.964Z,58.87
2018-06-18T19:55:04.410Z,58.75
2018-06-18T19:57:33.369Z,59.34
2018-06-18T20:02:33.589Z,59.12
2018-06-18T20:05:09.684Z,57.97
2018-06-18T20:07:44.913Z,57.70
2018-06-18T20:10:14.023Z,56.18
2018-06-18T20:12:43.184Z,56.03
2018-06-18T20:15:13.907Z,55.95
2018-06-18T20:17:43.722Z,55.91
2018-06-18T20:20:12.855Z,55.65
2018-06-18T20:22:41.945Z,55.51
2018-06-18T20:25:10.925Z,55.91
2018-06-18T20:27:39.920Z,56.09
2018-06-18T20:30:10.565Z,56.47
2018-06-18T20:32:39.569Z,56.42
2018-06-18T20:35:15.564Z,55.56
2018-06-18T20:37:45.147Z,56.30
2018-06-18T20:40:14.136Z,56.09
2018-06-18T20:42:43.201Z,55.73
2018-06-18T20:45:12.260Z,55.48
2018-06-18T20:47:41.480Z,55.31
2018-06-18T20:50:10.566Z,55.63
2018-06-18T20:52:39.581Z,56.17
2018-06-18T20:55:08.516Z,56.21
2018-06-18T20:57:37.681Z,56.03
2018-06-18T21:00:06.919Z,56.12
2018-06-18T21:02:35.894Z,56.30
2018-06-18T21:05:05.107Z,57.20
2018-06-18T21:07:34.189Z,57.49
2018-06-18T21:10:03.274Z,57.90
2018-06-18T21:12:32.379Z,57.54
2018-06-18T21:15:02.435Z,56.57
2018-06-18T21:17:31.376Z,56.65
2018-06-18T21:20:00.357Z,56.18
2018-06-18T21:22:29.312Z,56.39
2018-06-18T21:24:58.289Z,56.30
2018-06-18T21:27:27.443Z,55.92
2018-06-18T21:29:57.304Z,56.17
2018-06-18T21:32:26.999Z,56.40
2018-06-18T21:34:55.916Z,56.12
2018-06-18T21:37:24.860Z,55.61
2018-06-18T21:39:53.912Z,55.67
2018-06-18T21:42:22.878Z,56.33
2018-06-18T21:45:03.244Z,55.59
2018-06-18T21:47:32.355Z,56.86
2018-06-18T21:50:01.843Z,58.20
2018-06-18T21:52:31.187Z,59.13
2018-06-18T21:55:00.198Z,59.78
2018-06-18T21:57:29.236Z,59.89
2018-06-18T21:59:58.821Z,59.89
2018-06-18T22:02:27.795Z,60.35
2018-06-18T22:04:56.707Z,59.89
2018-06-18T22:07:25.613Z,59.73
2018-06-18T22:09:54.489Z,60.35
2018-06-18T22:12:23.681Z,61.20
2018-06-18T22:14:53.214Z,61.10
2018-06-18T22:17:22.201Z,61.27
2018-06-18T22:19:51.155Z,60.39
2018-06-18T22:22:20.232Z,60.10
2018-06-18T22:24:49.177Z,60.59
2018-06-18T22:27:18.061Z,62.51
2018-06-18T22:29:47.094Z,62.08
2018-06-18T22:32:16.004Z,62.13
2018-06-18T22:34:44.919Z,62.22
2018-06-18T22:37:14.067Z,62.85
2018-06-18T22:39:43.031Z,63.16
2018-06-18T22:42:11.957Z,63.41
2018-06-18T22:44:40.936Z,62.06
2018-06-18T22:47:09.912Z,61.29
2018-06-18T22:49:39.009Z,61.28
2018-06-18T22:52:08.108Z,60.58
2018-06-18T22:54:37.295Z,60.91
2018-06-18T22:57:06.221Z,60.69
2018-06-18T22:59:35.234Z,61.33
2018-06-18T23:02:07.617Z,61.75
2018-06-18T23:04:36.699Z,61.22
2018-06-18T23:07:06.280Z,61.92
2018-06-18T23:09:35.371Z,62.23
2018-06-18T23:12:04.510Z,62.52
2018-06-18T23:14:33.677Z,62.15
2018-06-18T23:17:02.679Z,62.48
2018-06-18T23:19:31.724Z,62.08
2018-06-18T23:22:00.733Z,61.75
2018-06-18T23:24:29.716Z,61.92
2018-06-18T23:26:58.764Z,61.90
2018-06-18T23:29:27.745Z,61.86
2018-06-18T23:31:56.673Z,61.68
2018-06-18T23:34:25.673Z,61.29
2018-06-18T23:36:54.665Z,61.32
2018-06-18T23:39:23.677Z,61.85
2018-06-18T23:41:55.969Z,61.93
2018-06-18T23:44:25.375Z,61.99
2018-06-18T23:46:54.475Z,61.67
2018-06-18T23:49:23.631Z,62.14
2018-06-18T23:51:52.602Z,61.94
2018-06-18T23:54:22.332Z,62.11
2018-06-18T23:56:51.307Z,62.09
2018-06-18T23:59:21.056Z,62.53
